KMZZ/MZZ METAR and TAF weather

Enter ICAO airport designator
Station Type Date Time Source
KMZZ METAR 2022/09/26 08:15 UTC NOAA

KMZZ 260815Z AUTO 27006KT 10SM SCT095 10/09 A2979 RMK AO2 T01020088


Station Type Date Time Source
KMZZ Decoded METAR 2022/09/26 08:15 UTC NOAA

Station name not available
Sep 26, 2022 - 04:15 AM EDT / 2022.09.26 0815 UTC
Wind: from the W (270 degrees) at 7 MPH (6 KT):0
Visibility: 10 mile(s):0
Sky conditions: partly cloudy
Temperature: 50.4 F (10.2 C)
Dew Point: 47.8 F (8.8 C)
Relative Humidity: 91%
Pressure (altimeter): 29.79 in. Hg (1008 hPa)
ob: KMZZ 260815Z AUTO 27006KT 10SM SCT095 10/09 A2979 RMK AO2 T01020088
cycle: 8

Station Type Date Time Source
KMZZ TAF UTC NOAA

Error!

Example: see airport list